Data for 09/21/2010

Time Sea-Level Adjusted Pressure Absolute Pressure Temperature Relative Humidity Dew Point   
(mb) (inHg) (mb) (inHg) (C) (F) (%) (C) (F)
00:05 1014 29.94 844 24.92 9.3 48.8 62 2.6 36.6
00:10 1014 29.94 843 24.89 9.4 48.8 61 2.3 36.1
00:15 1014 29.94 843 24.89 9.5 49.1 62 2.6 36.7
00:20 1014 29.94 843 24.89 9.4 48.9 63 2.6 36.7
00:25 1014 29.94 843 24.89 9.3 48.8 62 2.4 36.4
00:30 1014 29.94 843 24.89 9.4 48.9 62 2.5 36.6
00:35 1014 29.94 844 24.92 9.4 48.9 62 2.4 36.4
00:40 1014 29.94 844 24.92 9.4 48.9 63 2.6 36.7
00:45 1014 29.94 844 24.92 9.5 49 62 2.5 36.5
00:50 1014 29.94 844 24.92 9.6 49.3 61 2.5 36.5
00:55 1014 29.94 844 24.92 9.6 49.3 61 2.6 36.6
01:00 1014 29.94 844 24.92 9.4 48.9 63 2.8 37
01:05 1014 29.94 844 24.92 9.1 48.4 64 2.8 37
01:10 1014 29.94 843 24.89 9 48.1 65 2.9 37.1
01:15 1014 29.94 844 24.92 8.9 48.1 66 2.9 37.2
01:20 1014 29.94 844 24.92 8.9 48 67 3 37.4
01:25 1014 29.94 844 24.92 8.6 47.4 67 2.8 37.1
01:30 1014 29.94 843 24.89 8.6 47.5 65 2.5 36.6
01:35 1014 29.94 843 24.89 8.8 47.8 67 2.9 37.3
01:40 1014 29.94 843 24.89 8.4 47.2 70 3.3 37.9
01:45 1014 29.94 843 24.89 8 46.5 69 2.7 36.9
01:50 1014 29.94 844 24.92 8.2 46.8 66 2.3 36.1
01:55 1014 29.94 843 24.89 8.6 47.4 65 2.4 36.4
02:00 1014 29.94 843 24.89 8.5 47.3 64 2.2 35.9
02:05 1014 29.94 843 24.89 8.6 47.6 63 2.1 35.8
02:10 1014 29.94 843 24.89 8.6 47.5 64 2.1 35.9
02:15 1014 29.94 843 24.89 8.5 47.4 65 2.4 36.4
02:20 1014 29.94 843 24.89 8.3 46.9 66 2.3 36.2
02:25 1014 29.94 843 24.89 8.2 46.7 67 2.5 36.5
02:30 1014 29.94 843 24.89 7.9 46.2 67 2.1 35.8
02:35 1014 29.94 843 24.89 7.8 46.1 68 2.4 36.3
02:40 1014 29.94 843 24.89 7.9 46.2 67 2.2 35.9
02:45 1014 29.94 843 24.89 7.9 46.2 68 2.3 36.1
02:50 1014 29.94 843 24.89 8 46.4 66 2 35.6
02:55 1014 29.94 843 24.89 8.1 46.6 68 2.5 36.5
03:00 1014 29.94 843 24.89 8 46.4 66 2.1 35.9
03:05 1014 29.94 843 24.89 8.2 46.7 65 2.1 35.8
03:10 1014 29.94 843 24.89 8.1 46.6 67 2.3 36.1
03:15 1014 29.94 843 24.89 7.9 46.3 69 2.6 36.7
03:20 1014 29.94 843 24.89 7.5 45.5 69 2.3 36.1
03:25 1014 29.94 843 24.89 7.8 46.1 68 2.3 36.1
03:30 1014 29.94 843 24.89 7.9 46.3 68 2.4 36.3
03:35 1014 29.94 843 24.89 7.9 46.2 68 2.4 36.2
03:40 1014 29.94 843 24.89 7.7 45.9 67 1.9 35.5
03:45 1014 29.94 843 24.89 8.1 46.6 65 2 35.6
03:50 1014 29.94 843 24.89 8.2 46.8 66 2.3 36.2
03:55 1014 29.94 843 24.89 8.1 46.6 66 2.2 36
04:00 1014 29.94 843 24.89 8.1 46.5 65 2 35.5
04:05 1014 29.94 843 24.89 8 46.3 67 2.1 35.8
04:10 1014 29.94 843 24.89 7.7 45.9 69 2.3 36.2
04:15 1014 29.94 843 24.89 7.5 45.5 71 2.6 36.6
04:20 1014 29.94 843 24.89 7.5 45.6 69 2.2 35.9
04:25 1014 29.94 843 24.89 7.6 45.8 69 2.3 36.2
04:30 1014 29.94 843 24.89 7.6 45.6 68 2.1 35.9
04:35 1014 29.94 843 24.89 7.6 45.7 69 2.3 36.1
04:40 1014 29.94 843 24.89 7.4 45.3 71 2.5 36.5
04:45 1014 29.94 843 24.89 7 44.6 73 2.6 36.6
04:50 1014 29.94 843 24.89 6.7 44.1 74 2.4 36.3
04:55 1014 29.94 843 24.89 6.6 43.9 74 2.4 36.2
05:00 1014 29.94 843 24.89 6.5 43.8 74 2.3 36.2
05:05 1014 29.94 843 24.89 6.5 43.7 75 2.4 36.3
05:10 1014 29.94 843 24.89 6.3 43.3 76 2.4 36.3
05:15 1014 29.94 843 24.89 6.1 42.9 77 2.4 36.3
05:20 1014 29.94 843 24.89 6 42.8 78 2.5 36.4
05:25 1014 29.94 843 24.89 6.2 43.1 74 1.9 35.5
05:30 1014 29.94 843 24.89 6.7 44.1 72 2 35.7
05:35 1014 29.94 843 24.89 6.7 44.1 73 2.2 35.9
05:40 1014 29.94 843 24.89 6.7 44 72 2 35.6
05:45 1014 29.94 843 24.89 6.9 44.4 71 1.9 35.4
05:50 1014 29.94 843 24.89 6.9 44.4 72 2.2 35.9
05:55 1014 29.94 843 24.89 6.8 44.2 73 2.2 36
06:00 1014 29.94 843 24.89 6.4 43.5 75 2.3 36.1
06:05 1014 29.94 843 24.89 6.3 43.4 73 1.8 35.3
06:10 1014 29.94 843 24.89 6.5 43.8 73 2.1 35.8
06:15 1014 29.94 843 24.89 6.4 43.6 72 1.8 35.3
06:20 1014 29.94 843 24.89 6.6 43.8 74 2.2 36
06:25 1014 29.94 843 24.89 6.4 43.5 73 1.9 35.5
06:30 1014 29.94 843 24.89 6.3 43.3 75 2.2 36
06:35 1014 29.94 843 24.89 5.8 42.4 78 2.3 36.1
06:40 1014 29.94 843 24.89 5.3 41.6 79 2 35.6
06:45 1014 29.94 843 24.89 5.5 41.8 77 1.7 35.1
06:50 1014 29.94 843 24.89 5.8 42.4 76 1.9 35.3
06:55 1014 29.94 843 24.89 5.9 42.6 74 1.7 35
07:00 1014 29.94 843 24.89 5.9 42.6 75 1.9 35.4
07:05 1014 29.94 843 24.89 5.7 42.3 76 1.9 35.4
07:10 1014 29.94 843 24.89 5.4 41.7 77 1.6 35
07:15 1014 29.94 843 24.89 5.3 41.5 78 1.7 35
07:20 1014 29.94 843 24.89 5.5 41.9 76 1.5 34.7
07:25 1014 29.94 843 24.89 5.7 42.3 75 1.7 35.1
07:30 1014 29.94 843 24.89 5.4 41.8 77 1.7 35.1
07:35 1014 29.94 843 24.89 5.3 41.6 78 1.9 35.3
07:40 1014 29.94 843 24.89 5.3 41.5 77 1.5 34.7
07:45 1014 29.94 843 24.89 5.4 41.7 77 1.6 34.9
07:50 1014 29.94 843 24.89 5.3 41.6 77 1.6 34.9
07:55 1014 29.94 843 24.89 5.2 41.4 77 1.6 34.8
08:00 1014 29.94 843 24.89 5.3 41.5 77 1.6 34.8
08:05 1014 29.94 843 24.89 5.5 41.9 76 1.6 34.9
08:10 1014 29.94 843 24.89 5.8 42.4 75 1.6 34.9
08:15 1014 29.94 843 24.89 5.9 42.7 75 1.8 35.3
08:20 1014 29.94 843 24.89 5.9 42.6 75 1.8 35.3
08:25 1014 29.94 843 24.89 6 42.8 75 1.8 35.3
08:30 1014 29.94 843 24.89 6.2 43.1 72 1.6 34.9
08:35 1014 29.94 843 24.89 6.7 44 70 1.6 34.9
08:40 1014 29.94 843 24.89 7.3 45.1 68 1.8 35.3
08:45 1014 29.94 843 24.89 8.1 46.5 66 2.2 36
08:50 1014 29.94 843 24.89 8.5 47.4 65 2.3 36.1
08:55 1014 29.94 843 24.89 9 48.1 64 2.5 36.4
09:00 1014 29.94 843 24.89 9.3 48.8 61 2.2 36
09:05 1014 29.94 843 24.89 9.4 48.9 62 2.5 36.5
09:10 1014 29.94 843 24.89 9.3 48.7 61 2.3 36.1
09:15 1014 29.94 843 24.89 9.7 49.5 60 2.3 36.2
09:20 1014 29.94 843 24.89 9.9 49.7 61 2.8 37
09:25 1014 29.94 843 24.89 10 50 59 2.4 36.3
09:30 1014 29.94 843 24.89 10.8 51.5 57 2.6 36.8
09:35 1014 29.94 843 24.89 11.3 52.3 55 2.7 36.8
09:40 1014 29.94 843 24.89 11.6 52.9 53 2.5 36.5
09:45 1014 29.94 843 24.89 11.9 53.5 56 3.5 38.3
09:50 1014 29.94 843 24.89 11.3 52.4 55 2.7 36.8
09:55 1014 29.94 843 24.89 12 53.6 53 2.8 37.1
10:00 1014 29.94 843 24.89 12.1 53.8 53 3 37.4
10:05 1014 29.94 843 24.89 12.5 54.6 51 2.9 37.1
10:10 1014 29.94 843 24.89 13.1 55.6 50 3.1 37.7
10:15 1014 29.94 843 24.89 12.7 54.8 52 3.3 37.9
10:20 1014 29.94 843 24.89 12.4 54.3 50 2.4 36.3
10:25 1014 29.94 843 24.89 13.2 55.8 48 2.5 36.6
10:30 1014 29.94 843 24.89 14 57.3 48 3.2 37.7
10:35 1014 29.94 843 24.89 14.7 58.4 44 2.5 36.5
10:40 1014 29.94 843 24.89 14.9 58.8 42 2.2 36
10:45 1014 29.94 843 24.89 15.2 59.3 42 2.5 36.5
10:50 1014 29.94 843 24.89 15.1 59.2 44 3 37.4
10:55 1014 29.94 843 24.89 14.9 58.8 45 3.2 37.7
11:00 1014 29.94 843 24.89 15 58.9 45 3.3 37.9
11:05 1014 29.94 843 24.89 15 58.9 44 2.9 37.2
11:10 1014 29.94 843 24.89 15.2 59.3 44 3 37.4
11:15 1014 29.94 843 24.89 15 58.9 44 3 37.4
11:20 1014 29.94 843 24.89 15.1 59.1 47 3.9 39.1
11:25 1014 29.94 843 24.89 15.4 59.7 44 3.3 38
11:30 1014 29.94 843 24.89 14.7 58.4 50 4.3 39.8
11:35 1014 29.94 843 24.89 15.1 59.2 46 3.6 38.5
11:40 1014 29.94 843 24.89 14.7 58.5 51 4.6 40.4
11:45 1014 29.94 843 24.89 13.9 56.9 51 4.1 39.4
11:50 1014 29.94 843 24.89 14.4 58 45 2.8 37
11:55 1013 29.91 843 24.89 14.6 58.3 49 4.1 39.4
12:00 1013 29.91 843 24.89 14.6 58.2 47 3.6 38.4
12:05 1013 29.91 843 24.89 14.2 57.6 50 3.9 39
12:10 1013 29.91 842 24.86 14.4 57.9 49 3.8 38.9
12:15 1013 29.91 842 24.86 14.8 58.6 48 4 39.3
12:20 1013 29.91 842 24.86 15.4 59.7 44 3.3 37.9
12:25 1013 29.91 842 24.86 15.9 60.6 45 4 39.2
12:30 1013 29.91 842 24.86 16.4 61.5 42 3.6 38.5
12:35 1013 29.91 842 24.86 16.2 61.2 43 3.8 38.9
12:40 1013 29.91 842 24.86 16.7 62.1 38 2.4 36.4
12:45 1013 29.91 842 24.86 17.1 62.7 37 2.6 36.6
12:50 1013 29.91 842 24.86 17.4 63.4 37 2.9 37.2
12:55 1013 29.91 842 24.86 17.4 63.2 36 2.4 36.3
13:00 1013 29.91 842 24.86 17.4 63.2 37 2.6 36.6
13:05 1013 29.91 842 24.86 16.2 61.2 39 2.3 36.1
13:10 1013 29.91 842 24.86 17 62.6 34 1.1 34
13:15 1013 29.91 842 24.86 16.6 61.8 37 2 35.7
13:20 1012 29.88 842 24.86 17 62.5 36 1.8 35.2
13:25 1012 29.88 842 24.86 16.3 61.4 38 1.9 35.5
13:30 1012 29.88 842 24.86 16.5 61.7 35 1.1 34
13:35 1012 29.88 841 24.83 16.6 61.9 37 1.8 35.3
13:40 1012 29.88 841 24.83 17.3 63.1 33 0.9 33.6
13:45 1012 29.88 841 24.83 18.1 64.6 32 1.1 34
13:50 1012 29.88 841 24.83 18.3 64.9 31 0.9 33.6
13:55 1012 29.88 841 24.83 17.6 63.7 32 0.9 33.6
14:00 1012 29.88 841 24.83 18.1 64.6 30 0.3 32.6
14:05 1012 29.88 841 24.83 18.9 66 30 1 33.9
14:10 1012 29.88 841 24.83 19.3 66.7 28 0.7 33.2
14:15 1012 29.88 841 24.83 19.2 66.6 29 0.9 33.7
14:20 1012 29.88 841 24.83 18.6 65.5 30 0.9 33.6
14:25 1012 29.88 841 24.83 18.3 64.9 30 0.4 32.8
14:30 1012 29.88 841 24.83 17.7 63.8 32 0.8 33.4
14:35 1012 29.88 841 24.83 17.9 64.2 31 0.6 33.1
14:40 1012 29.88 841 24.83 18.8 65.8 29 0.3 32.5
14:45 1012 29.88 841 24.83 18.5 65.3 29 0.3 32.5
14:50 1011 29.85 841 24.83 18.5 65.2 30 0.7 33.2
14:55 1011 29.85 841 24.83 18.4 65.1 29 0 32
15:00 1011 29.85 841 24.83 18.3 64.9 29 -0 32
15:05 1011 29.85 841 24.83 18.2 64.7 30 0.5 33
15:10 1011 29.85 840 24.81 18 64.3 29 -0.1 31.9
15:15 1011 29.85 840 24.81 17.5 63.5 30 -0.2 31.6
15:20 1011 29.85 841 24.83 16.9 62.4 32 0.3 32.6
15:25 1011 29.85 840 24.81 16.9 62.4 30 -0.5 31.1
15:30 1011 29.85 841 24.83 17.2 62.9 31 0.2 32.4
15:35 1011 29.85 840 24.81 17 62.6 31 0 32.1
15:40 1011 29.85 840 24.81 17.2 62.9 31 0.2 32.3
15:45 1011 29.85 840 24.81 17 62.6 32 0.3 32.5
15:50 1011 29.85 840 24.81 16.9 62.4 32 0.2 32.4
15:55 1011 29.85 840 24.81 16.8 62.2 32 -0 31.9
16:00 1011 29.85 840 24.81 16.3 61.4 33 0.1 32.2
16:05 1011 29.85 840 24.81 16.6 62 32 -0.1 31.9
16:10 1011 29.85 840 24.81 17 62.6 32 0.3 32.6
16:15 1011 29.85 840 24.81 17.2 62.9 31 0.2 32.3
16:20 1011 29.85 840 24.81 17.1 62.7 33 0.7 33.3
16:25 1011 29.85 840 24.81 17.3 63.1 32 0.5 32.8
16:30 1011 29.85 840 24.81 17.4 63.3 31 0.2 32.4
16:35 1011 29.85 840 24.81 17.3 63.2 32 0.5 32.8
16:40 1011 29.85 840 24.81 16.8 62.3 31 -0.2 31.6
16:45 1011 29.85 840 24.81 16.7 62.1 31 -0.3 31.5
16:50 1011 29.85 840 24.81 16.6 61.8 31 -0.3 31.5
16:55 1011 29.85 840 24.81 16.6 61.9 33 0.3 32.6
17:00 1011 29.85 840 24.81 17 62.6 31 0 32
17:05 1011 29.85 840 24.81 17.3 63.2 33 0.8 33.5
17:10 1011 29.85 840 24.81 17.5 63.4 31 0.2 32.3
17:15 1011 29.85 840 24.81 17 62.5 32 0.4 32.7
17:20 1011 29.85 840 24.81 16.9 62.4 32 0.1 32.3
17:25 1011 29.85 840 24.81 16.9 62.3 32 0.3 32.5
17:30 1011 29.85 840 24.81 17 62.5 33 0.7 33.2
17:35 1011 29.85 840 24.81 16.7 62 34 0.7 33.3
17:40 1011 29.85 840 24.81 16.7 62.1 35 1.4 34.5
17:45 1011 29.85 840 24.81 16.8 62.2 32 0.3 32.5
17:50 1011 29.85 840 24.81 16.8 62.2 35 1.2 34.2
17:55 1010 29.83 840 24.81 17 62.6 33 0.9 33.6
18:00 1010 29.83 840 24.81 16.7 62 35 1.1 34
18:05 1010 29.83 840 24.81 16.6 62 37 2 35.5
18:10 1010 29.83 840 24.81 16.8 62.2 37 2 35.6
18:15 1010 29.83 840 24.81 16.6 61.9 38 2.2 36
18:20 1010 29.83 840 24.81 16.5 61.7 37 1.8 35.3
18:25 1010 29.83 840 24.81 16.3 61.3 38 2.2 35.9
18:30 1010 29.83 840 24.81 16.2 61.1 38 1.8 35.3
18:35 1010 29.83 840 24.81 16 60.8 38 1.9 35.4
18:40 1010 29.83 840 24.81 15.7 60.3 38 1.7 35
18:45 1011 29.85 840 24.81 15.6 60.1 37 1.3 34.3
18:50 1011 29.85 840 24.81 15.5 60 38 1.4 34.5
18:55 1011 29.85 840 24.81 15.4 59.6 39 1.5 34.7
19:00 1011 29.85 840 24.81 15.3 59.5 38 1.2 34.1
19:05 1011 29.85 840 24.81 15.1 59.3 40 1.6 34.8
19:10 1011 29.85 840 24.81 15 58.9 39 1 33.9
19:15 1011 29.85 840 24.81 14.9 58.8 41 1.7 35
19:20 1011 29.85 840 24.81 14.6 58.3 46 3.4 38.1
19:25 1011 29.85 840 24.81 14.5 58 51 4.6 40.2
19:30 1011 29.85 840 24.81 14.3 57.8 53 5 40.9
19:35 1011 29.85 840 24.81 14.2 57.6 54 5.1 41.1
19:40 1011 29.85 840 24.81 14.1 57.4 55 5.3 41.6
19:45 1011 29.85 840 24.81 13.9 57.1 57 5.6 42
19:50 1011 29.85 840 24.81 13.8 56.8 58 5.7 42.3
19:55 1011 29.85 840 24.81 13.7 56.6 59 5.8 42.5
20:00 1011 29.85 840 24.81 13.6 56.4 59 5.8 42.4
20:05 1011 29.85 840 24.81 13.5 56.3 60 5.9 42.6
20:10 1011 29.85 840 24.81 13.5 56.2 60 5.8 42.4
20:15 1011 29.85 840 24.81 13.4 56.1 60 5.8 42.4
20:20 1011 29.85 840 24.81 13.4 56.1 59 5.6 42.1
20:25 1011 29.85 840 24.81 13.4 56.1 59 5.6 42.1
20:30 1011 29.85 840 24.81 13.3 56 59 5.6 42
20:35 1011 29.85 840 24.81 13.3 56 59 5.6 42
20:40 1011 29.85 840 24.81 13.2 55.8 60 5.6 42.2
20:45 1011 29.85 840 24.81 13.2 55.7 61 5.8 42.4
20:50 1011 29.85 840 24.81 13.1 55.5 61 5.8 42.4
20:55 1011 29.85 840 24.81 13 55.4 62 5.9 42.7
21:00 1011 29.85 840 24.81 12.9 55.2 62 5.9 42.6
21:05 1011 29.85 840 24.81 12.8 55.1 63 6 42.8
21:10 1011 29.85 840 24.81 12.7 54.8 64 6 42.8
21:15 1011 29.85 840 24.81 12.6 54.7 63 5.8 42.4
21:20 1011 29.85 840 24.81 12.6 54.6 63 5.8 42.4
21:25 1011 29.85 840 24.81 12.5 54.5 63 5.7 42.2
21:30 1011 29.85 840 24.81 12.4 54.4 63 5.7 42.3
21:35 1011 29.85 840 24.81 12.3 54.1 64 5.7 42.2
21:40 1011 29.85 840 24.81 12.2 53.9 64 5.7 42.2
21:45 1011 29.85 840 24.81 12 53.6 65 5.6 42.1
21:50 1011 29.85 840 24.81 11.9 53.5 65 5.7 42.2
21:55 1011 29.85 840 24.81 11.8 53.2 65 5.5 42
22:00 1011 29.85 840 24.81 11.7 53.1 65 5.5 41.8
22:05 1011 29.85 840 24.81 11.6 52.9 66 5.5 42
22:10 1011 29.85 840 24.81 11.5 52.6 67 5.6 42.2
22:15 1011 29.85 840 24.81 11.3 52.3 69 5.8 42.5
22:20 1011 29.85 841 24.83 11.1 52 70 6 42.7
22:25 1011 29.85 840 24.81 10.9 51.7 71 6 42.8
22:30 1011 29.85 841 24.83 10.8 51.5 72 6.1 42.9
22:35 1011 29.85 841 24.83 10.7 51.3 73 6.2 43.1
22:40 1011 29.85 841 24.83 10.6 51.1 74 6.2 43.1
22:45 1011 29.85 841 24.83 10.5 50.8 75 6.2 43.1
22:50 1011 29.85 841 24.83 10.4 50.7 75 6.2 43.1
22:55 1011 29.85 841 24.83 10.3 50.5 76 6.2 43.2
23:00 1011 29.85 841 24.83 10.1 50.2 77 6.2 43.1
23:05 1011 29.85 841 24.83 10 50 77 6.1 43.1
23:10 1011 29.85 841 24.83 9.9 49.7 78 6.2 43.2
23:15 1011 29.85 841 24.83 9.6 49.3 79 6.2 43.1
23:20 1011 29.85 841 24.83 9.5 49.1 80 6.2 43.1
23:25 1012 29.88 841 24.83 9.4 48.9 80 6.2 43.1
23:30 1011 29.85 841 24.83 9.3 48.7 81 6.2 43.1
23:35 1011 29.85 841 24.83 9.2 48.5 81 6.2 43.1
23:40 1011 29.85 841 24.83 9.1 48.4 82 6.2 43.2
23:45 1011 29.85 841 24.83 9 48.2 83 6.2 43.1
23:50 1011 29.85 841 24.83 8.9 48 83 6.2 43.1
23:55 1011 29.85 841 24.83 8.8 47.9 83 6.1 43
24:00 1011 29.85 841 24.83 8.7 47.7 84 6.1 43